createdAt,value
2023-04-24T00:01:54.571Z,99.90
2023-04-24T00:04:23.335Z,99.90
2023-04-24T00:06:55.620Z,99.90
2023-04-24T00:09:24.231Z,99.90
2023-04-24T00:11:52.787Z,99.90
2023-04-24T00:14:21.333Z,99.90
2023-04-24T00:16:49.907Z,99.90
2023-04-24T00:19:18.832Z,99.90
2023-04-24T00:21:47.354Z,99.90
2023-04-24T00:24:17.422Z,99.90
2023-04-24T00:26:45.956Z,99.90
2023-04-24T00:29:14.420Z,99.90
2023-04-24T00:31:43.015Z,99.90
2023-04-24T00:34:12.956Z,99.90
2023-04-24T00:36:41.516Z,99.90
2023-04-24T00:39:11.048Z,99.90
2023-04-24T00:41:41.002Z,99.90
2023-04-24T00:44:09.589Z,99.90
2023-04-24T00:46:38.917Z,99.90
2023-04-24T00:49:08.152Z,99.90
2023-04-24T00:51:37.864Z,99.90
2023-04-24T00:54:06.641Z,99.90
2023-04-24T00:56:35.748Z,99.90
2023-04-24T00:59:06.864Z,99.90
2023-04-24T01:01:36.055Z,99.90
2023-04-24T01:04:05.379Z,99.90
2023-04-24T01:06:35.239Z,99.90
2023-04-24T01:09:03.852Z,99.90
2023-04-24T01:11:33.286Z,99.90
2023-04-24T01:14:02.748Z,99.90
2023-04-24T01:16:32.904Z,99.90
2023-04-24T01:19:01.431Z,99.90
2023-04-24T01:21:37.868Z,99.90
2023-04-24T01:24:09.051Z,99.90
2023-04-24T01:26:37.809Z,99.90
2023-04-24T01:29:06.465Z,99.90
2023-04-24T01:31:35.473Z,99.90
2023-04-24T01:34:04.883Z,99.90
2023-04-24T01:36:34.250Z,99.90
2023-04-24T01:39:02.916Z,99.90
2023-04-24T01:41:33.179Z,99.90
2023-04-24T01:44:01.950Z,99.90
2023-04-24T01:46:32.495Z,99.90
2023-04-24T01:49:03.105Z,99.90
2023-04-24T01:51:32.217Z,99.90
2023-04-24T01:54:02.469Z,99.90
2023-04-24T01:56:33.172Z,99.90
2023-04-24T01:59:03.331Z,99.90
2023-04-24T02:01:38.339Z,99.90
2023-04-24T02:04:08.696Z,99.90
2023-04-24T02:06:38.272Z,99.90
2023-04-24T02:09:06.734Z,99.90
2023-04-24T02:11:36.613Z,99.90
2023-04-24T02:14:05.252Z,99.90
2023-04-24T02:16:35.102Z,99.90
2023-04-24T02:19:03.713Z,99.90
2023-04-24T02:21:33.115Z,99.90
2023-04-24T02:24:02.109Z,99.90
2023-04-24T02:26:32.962Z,99.90
2023-04-24T02:29:02.926Z,99.90
2023-04-24T02:31:31.694Z,99.90
2023-04-24T02:34:00.213Z,99.90
2023-04-24T02:36:28.725Z,99.90
2023-04-24T02:38:57.148Z,99.90
2023-04-24T02:41:25.606Z,99.90
2023-04-24T02:43:54.139Z,99.90
2023-04-24T02:46:24.113Z,99.90
2023-04-24T02:48:52.719Z,99.90
2023-04-24T02:51:21.287Z,99.90
2023-04-24T02:53:49.900Z,99.90
2023-04-24T02:56:18.361Z,99.90
2023-04-24T02:58:46.940Z,99.90
2023-04-24T03:01:15.848Z,99.90
2023-04-24T03:03:46.184Z,99.90
2023-04-24T03:06:14.868Z,99.90
2023-04-24T03:08:43.517Z,99.90
2023-04-24T03:11:12.023Z,99.90
2023-04-24T03:13:40.986Z,99.90
2023-04-24T03:16:09.705Z,99.90
2023-04-24T03:18:38.258Z,99.90
2023-04-24T03:21:08.175Z,99.90
2023-04-24T03:23:36.597Z,99.90
2023-04-24T03:26:05.536Z,99.90
2023-04-24T03:28:34.048Z,99.90
2023-04-24T03:31:02.737Z,99.90
2023-04-24T03:33:31.223Z,99.90
2023-04-24T03:35:59.864Z,99.90
2023-04-24T03:38:29.835Z,99.90
2023-04-24T03:40:58.324Z,99.90
2023-04-24T03:43:28.542Z,99.90
2023-04-24T03:45:57.255Z,99.90
2023-04-24T03:48:25.804Z,99.90
2023-04-24T03:50:54.299Z,99.90
2023-04-24T03:53:22.920Z,99.90
2023-04-24T03:55:53.027Z,99.90
2023-04-24T03:58:21.746Z,99.90
2023-04-24T04:00:50.901Z,99.90
2023-04-24T04:03:19.439Z,99.90
2023-04-24T04:05:48.396Z,99.90
2023-04-24T04:08:16.942Z,99.90
2023-04-24T04:10:45.275Z,99.90
2023-04-24T04:13:14.899Z,99.90
2023-04-24T04:15:43.260Z,99.90
2023-04-24T04:18:11.626Z,99.90
2023-04-24T04:20:39.901Z,99.90
2023-04-24T04:23:08.150Z,99.90
2023-04-24T04:25:36.530Z,99.90
2023-04-24T04:28:05.789Z,99.90
2023-04-24T04:30:35.812Z,99.90
2023-04-24T04:33:04.187Z,99.90
2023-04-24T04:35:32.467Z,99.90
2023-04-24T04:38:00.856Z,99.90
2023-04-24T04:40:29.466Z,99.90
2023-04-24T04:42:57.833Z,99.90
2023-04-24T04:45:28.003Z,99.90
2023-04-24T04:47:57.819Z,99.90
2023-04-24T04:50:26.166Z,99.90
2023-04-24T04:52:54.433Z,99.90
2023-04-24T04:55:23.039Z,99.90
2023-04-24T04:57:51.376Z,99.90
2023-04-24T05:00:20.254Z,99.90
2023-04-24T05:02:48.639Z,99.90
2023-04-24T05:05:19.015Z,99.90
2023-04-24T05:07:47.353Z,99.90
2023-04-24T05:10:15.754Z,99.90
2023-04-24T05:12:46.230Z,99.90
2023-04-24T05:15:14.820Z,99.90
2023-04-24T05:17:43.393Z,99.90
2023-04-24T05:20:11.903Z,99.90
2023-04-24T05:22:41.483Z,99.90
2023-04-24T05:25:10.225Z,99.90
2023-04-24T05:27:38.611Z,99.90
2023-04-24T05:30:08.677Z,99.90
2023-04-24T05:32:36.932Z,99.90
2023-04-24T05:35:05.629Z,99.90
2023-04-24T05:37:33.924Z,99.90
2023-04-24T05:40:05.968Z,99.90
2023-04-24T05:42:34.420Z,99.90
2023-04-24T05:45:02.629Z,99.90
2023-04-24T05:47:30.972Z,99.90
2023-04-24T05:49:59.345Z,99.90
2023-04-24T05:52:27.665Z,99.90
2023-04-24T05:54:56.722Z,99.90
2023-04-24T05:57:26.848Z,99.90
2023-04-24T05:59:55.158Z,99.90
2023-04-24T06:02:23.930Z,99.90
2023-04-24T06:04:52.615Z,99.90
2023-04-24T06:07:21.468Z,99.90
2023-04-24T06:09:49.723Z,99.90
2023-04-24T06:12:18.023Z,99.90
2023-04-24T06:14:47.939Z,99.90
2023-04-24T06:17:16.447Z,99.90
2023-04-24T06:19:44.885Z,99.90
2023-04-24T06:22:13.363Z,99.90
2023-04-24T06:24:42.474Z,99.90
2023-04-24T06:27:10.823Z,99.90
2023-04-24T06:29:39.186Z,99.90
2023-04-24T06:32:09.172Z,99.90
2023-04-24T06:34:37.729Z,99.40
2023-04-24T06:37:06.078Z,99.90
2023-04-24T06:39:34.400Z,99.90
2023-04-24T06:42:02.716Z,99.30
2023-04-24T06:44:31.020Z,98.70
2023-04-24T06:46:59.648Z,98.40
2023-04-24T06:49:29.332Z,99.20
2023-04-24T06:51:57.580Z,98.50
2023-04-24T06:54:25.795Z,99.30
2023-04-24T06:56:54.418Z,97.60
2023-04-24T06:59:22.757Z,98.10
2023-04-24T07:01:53.810Z,99.10
2023-04-24T07:04:23.564Z,99.40
2023-04-24T07:06:55.431Z,97.90
2023-04-24T07:09:24.819Z,98.80
2023-04-24T07:11:53.883Z,97.70
2023-04-24T07:14:22.580Z,98.30
2023-04-24T07:16:51.212Z,97.50
2023-04-24T07:19:19.432Z,95.20
2023-04-24T07:21:47.758Z,95.30
2023-04-24T07:24:17.494Z,96.40
2023-04-24T07:26:47.519Z,96.90
2023-04-24T07:29:15.961Z,96.50
2023-04-24T07:31:44.404Z,96.10
2023-04-24T07:34:12.720Z,95.00
2023-04-24T07:36:41.106Z,92.20
2023-04-24T07:39:09.496Z,91.20
2023-04-24T07:41:39.398Z,90.40
2023-04-24T07:44:07.799Z,90.90
2023-04-24T07:46:36.390Z,92.00
2023-04-24T07:49:12.961Z,92.60
2023-04-24T07:51:43.079Z,91.60
2023-04-24T07:54:11.806Z,91.50
2023-04-24T07:56:44.107Z,90.50
2023-04-24T07:59:12.838Z,89.50
2023-04-24T08:01:42.531Z,87.90
2023-04-24T08:04:11.090Z,90.20
2023-04-24T08:06:39.738Z,91.00
2023-04-24T08:09:08.249Z,91.90
2023-04-24T08:11:36.612Z,91.70
2023-04-24T08:14:06.382Z,91.70
2023-04-24T08:16:35.899Z,93.30
2023-04-24T08:19:04.445Z,93.30
2023-04-24T08:21:32.881Z,94.30
2023-04-24T08:24:01.572Z,93.90
2023-04-24T08:26:29.976Z,93.10
2023-04-24T08:28:58.258Z,92.70
2023-04-24T08:31:28.118Z,93.00
2023-04-24T08:33:56.433Z,93.40
2023-04-24T08:36:30.403Z,93.80
2023-04-24T08:39:01.447Z,94.00
2023-04-24T08:41:30.215Z,94.10
2023-04-24T08:44:00.227Z,94.30
2023-04-24T08:46:31.580Z,95.40
2023-04-24T08:49:00.647Z,95.50
2023-04-24T08:51:29.811Z,95.80
2023-04-24T08:53:59.483Z,96.50
2023-04-24T08:56:28.673Z,96.90
2023-04-24T08:58:57.160Z,97.20
2023-04-24T09:01:27.561Z,96.40
2023-04-24T09:03:59.241Z,97.00
2023-04-24T09:06:29.169Z,96.40
2023-04-24T09:08:58.079Z,96.80
2023-04-24T09:11:27.584Z,97.00
2023-04-24T09:13:56.591Z,97.60
2023-04-24T09:16:25.504Z,97.80
2023-04-24T09:18:54.269Z,97.70
2023-04-24T09:21:25.006Z,98.50
2023-04-24T09:24:03.946Z,99.30
2023-04-24T09:26:34.082Z,99.90
2023-04-24T09:29:02.883Z,99.70
2023-04-24T09:31:32.067Z,99.30
2023-04-24T09:34:03.633Z,99.80
2023-04-24T09:36:38.067Z,99.90
2023-04-24T09:39:09.426Z,99.90
2023-04-24T09:41:47.102Z,99.90
2023-04-24T09:44:17.394Z,99.90
2023-04-24T09:46:47.376Z,99.90
2023-04-24T09:49:17.404Z,99.90
2023-04-24T09:51:47.184Z,99.90
2023-04-24T09:54:21.125Z,99.90
2023-04-24T09:56:51.256Z,99.90
2023-04-24T09:59:21.040Z,99.90
2023-04-24T10:01:50.756Z,99.90
2023-04-24T10:04:20.606Z,99.90
2023-04-24T10:06:51.776Z,99.90
2023-04-24T10:09:21.013Z,99.70
2023-04-24T10:11:50.723Z,99.90
2023-04-24T10:14:21.694Z,99.90
2023-04-24T10:16:51.516Z,99.30
2023-04-24T10:19:21.165Z,98.60
2023-04-24T10:21:51.952Z,99.10
2023-04-24T10:24:22.226Z,99.30
2023-04-24T10:26:51.094Z,99.50
2023-04-24T10:29:22.559Z,99.70
2023-04-24T10:31:51.076Z,99.70
2023-04-24T10:34:23.038Z,99.90
2023-04-24T10:36:57.852Z,99.20
2023-04-24T10:39:27.268Z,99.70
2023-04-24T10:41:58.525Z,99.80
2023-04-24T10:44:27.852Z,99.90
2023-04-24T10:46:57.799Z,99.90
2023-04-24T10:49:31.937Z,99.90
2023-04-24T10:52:06.649Z,99.90
2023-04-24T10:54:38.846Z,99.90
2023-04-24T10:57:31.073Z,99.90
2023-04-24T11:00:21.134Z,99.90
2023-04-24T11:02:52.026Z,99.90
2023-04-24T11:05:22.453Z,99.90
2023-04-24T11:08:14.706Z,99.90
2023-04-24T11:10:46.408Z,99.90
2023-04-24T11:13:17.644Z,99.90
2023-04-24T11:15:46.262Z,99.90
2023-04-24T11:18:18.316Z,99.90
2023-04-24T11:20:47.284Z,99.40
2023-04-24T11:23:17.498Z,99.60
2023-04-24T11:25:47.859Z,99.20
2023-04-24T11:28:18.554Z,98.90
2023-04-24T11:30:47.085Z,99.70
2023-04-24T11:33:23.104Z,99.90
2023-04-24T11:35:54.194Z,99.90
2023-04-24T11:38:25.133Z,99.90
2023-04-24T11:40:54.995Z,99.90
2023-04-24T11:43:24.292Z,99.90
2023-04-24T11:45:52.738Z,99.90
2023-04-24T11:48:23.217Z,99.90
2023-04-24T11:50:52.663Z,99.90
2023-04-24T11:53:23.735Z,99.90
2023-04-24T11:55:52.234Z,99.90
2023-04-24T11:58:24.108Z,99.90
2023-04-24T12:00:59.701Z,99.90
2023-04-24T12:03:28.512Z,99.90
2023-04-24T12:06:09.110Z,99.90
2023-04-24T12:08:39.393Z,99.90
2023-04-24T12:11:09.669Z,99.90
2023-04-24T12:13:38.467Z,99.90
2023-04-24T12:16:07.609Z,99.90
2023-04-24T12:18:36.187Z,99.90
2023-04-24T12:21:27.563Z,99.90
2023-04-24T12:23:59.091Z,99.90
2023-04-24T12:26:27.798Z,98.70
2023-04-24T12:28:56.178Z,95.60
2023-04-24T12:31:24.900Z,96.20
2023-04-24T12:33:53.426Z,95.30
2023-04-24T12:36:24.176Z,94.60
2023-04-24T12:38:55.797Z,94.60
2023-04-24T12:41:25.623Z,94.10
2023-04-24T12:43:55.843Z,92.70
2023-04-24T12:46:24.409Z,92.70
2023-04-24T12:48:53.144Z,93.30
2023-04-24T12:51:21.807Z,92.90
2023-04-24T12:53:50.349Z,92.20
2023-04-24T12:56:19.087Z,92.70
2023-04-24T12:58:49.054Z,92.80
2023-04-24T13:01:17.621Z,91.50
2023-04-24T13:03:46.392Z,91.40
2023-04-24T13:06:15.216Z,91.10
2023-04-24T13:08:43.679Z,92.10
2023-04-24T13:11:12.114Z,91.50
2023-04-24T13:13:41.098Z,91.20
2023-04-24T13:16:11.796Z,91.70
2023-04-24T13:18:40.347Z,91.80
2023-04-24T13:21:09.074Z,90.20
2023-04-24T13:23:37.695Z,90.50
2023-04-24T13:26:06.476Z,90.60
2023-04-24T13:28:34.897Z,90.30
2023-04-24T13:31:03.424Z,90.80
2023-04-24T13:33:33.191Z,89.60
2023-04-24T13:36:01.595Z,89.70
2023-04-24T13:38:30.218Z,90.30
2023-04-24T13:40:58.684Z,90.20
2023-04-24T13:43:27.261Z,91.20
2023-04-24T13:45:55.851Z,90.70
2023-04-24T13:48:24.317Z,89.50
2023-04-24T13:50:54.623Z,88.60
2023-04-24T13:53:23.138Z,89.00
2023-04-24T13:55:52.240Z,88.90
2023-04-24T13:58:20.758Z,90.00
2023-04-24T14:00:49.282Z,90.60
2023-04-24T14:03:18.015Z,90.70
2023-04-24T14:05:46.656Z,89.90
2023-04-24T14:08:16.437Z,89.90
2023-04-24T14:10:45.543Z,90.30
2023-04-24T14:13:14.264Z,90.00
2023-04-24T14:15:42.903Z,88.60
2023-04-24T14:18:11.523Z,88.90
2023-04-24T14:20:40.049Z,89.20
2023-04-24T14:23:08.579Z,88.50
2023-04-24T14:25:38.662Z,88.20
2023-04-24T14:28:08.705Z,89.10
2023-04-24T14:30:38.572Z,88.70
2023-04-24T14:33:07.044Z,89.60
2023-04-24T14:35:36.343Z,90.00
2023-04-24T14:38:04.826Z,90.70
2023-04-24T14:43:06.558Z,90.10
2023-04-24T14:45:34.933Z,90.70
2023-04-24T14:48:03.438Z,90.00
2023-04-24T14:50:32.108Z,89.60
2023-04-24T14:53:00.598Z,90.20
2023-04-24T14:55:29.059Z,90.40
2023-04-24T14:57:57.894Z,90.20
2023-04-24T15:00:27.752Z,90.00
2023-04-24T15:02:56.489Z,90.20
2023-04-24T15:05:26.364Z,90.30
2023-04-24T15:07:55.168Z,90.50
2023-04-24T15:10:24.074Z,90.70
2023-04-24T15:12:52.506Z,90.80
2023-04-24T15:15:21.052Z,90.50
2023-04-24T15:17:51.019Z,90.90
2023-04-24T15:20:20.103Z,89.90
2023-04-24T15:22:48.498Z,89.90
2023-04-24T15:25:16.941Z,89.70
2023-04-24T15:27:46.055Z,90.30
2023-04-24T15:30:15.467Z,90.60
2023-04-24T15:32:44.012Z,90.70
2023-04-24T15:35:13.802Z,91.20
2023-04-24T15:37:43.110Z,90.70
2023-04-24T15:40:14.393Z,90.80
2023-04-24T15:42:44.760Z,91.40
2023-04-24T15:45:13.904Z,91.00
2023-04-24T15:47:42.582Z,91.70
2023-04-24T15:50:14.381Z,91.40
2023-04-24T15:52:44.953Z,91.20
2023-04-24T15:55:13.769Z,91.70
2023-04-24T15:57:42.132Z,91.90
2023-04-24T16:00:11.709Z,92.00
2023-04-24T16:02:40.491Z,91.80
2023-04-24T16:05:09.760Z,92.00
2023-04-24T16:07:39.743Z,92.50
2023-04-24T16:10:10.354Z,92.30
2023-04-24T16:12:38.857Z,92.30
2023-04-24T16:15:08.434Z,92.40
2023-04-24T16:17:36.898Z,92.50
2023-04-24T16:20:05.634Z,92.50
2023-04-24T16:22:33.964Z,92.90
2023-04-24T16:25:02.550Z,92.40
2023-04-24T16:27:32.316Z,92.90
2023-04-24T16:30:00.845Z,92.40
2023-04-24T16:32:29.326Z,92.70
2023-04-24T16:34:57.824Z,93.00
2023-04-24T16:37:26.613Z,92.80
2023-04-24T16:39:55.281Z,93.30
2023-04-24T16:42:23.793Z,93.70
2023-04-24T16:44:53.780Z,94.90
2023-04-24T16:47:22.205Z,95.10
2023-04-24T16:49:51.062Z,95.80
2023-04-24T16:52:19.481Z,96.20
2023-04-24T16:54:47.984Z,96.60
2023-04-24T16:57:16.949Z,96.70
2023-04-24T16:59:45.417Z,97.10
2023-04-24T17:02:15.427Z,97.40
2023-04-24T17:04:43.790Z,98.10
2023-04-24T17:07:12.108Z,98.00
2023-04-24T17:09:40.550Z,98.50
2023-04-24T17:12:08.920Z,99.10
2023-04-24T17:14:37.324Z,99.80
2023-04-24T17:17:05.724Z,99.90
2023-04-24T17:19:35.591Z,99.90
2023-04-24T17:22:06.270Z,99.90
2023-04-24T17:24:34.943Z,99.90
2023-04-24T17:27:13.751Z,99.90
2023-04-24T17:29:43.526Z,99.90
2023-04-24T17:32:12.096Z,99.90
2023-04-24T17:34:42.418Z,99.90
2023-04-24T17:37:10.879Z,99.90
2023-04-24T17:39:39.234Z,99.90
2023-04-24T17:42:07.836Z,99.90
2023-04-24T17:44:36.457Z,99.90
2023-04-24T17:47:05.269Z,99.90
2023-04-24T17:49:34.247Z,99.90
2023-04-24T17:52:03.969Z,99.90
2023-04-24T17:54:32.448Z,99.90
2023-04-24T17:57:00.914Z,99.90
2023-04-24T17:59:29.430Z,99.90
2023-04-24T18:01:58.489Z,99.90
2023-04-24T18:04:27.184Z,99.90
2023-04-24T18:06:55.604Z,99.90
2023-04-24T18:09:25.453Z,99.90
2023-04-24T18:11:54.025Z,99.90
2023-04-24T18:14:23.393Z,99.90
2023-04-24T18:16:51.793Z,99.90
2023-04-24T18:19:20.265Z,99.90
2023-04-24T18:21:48.657Z,99.90
2023-04-24T18:24:17.135Z,99.90
2023-04-24T18:26:46.906Z,99.90
2023-04-24T18:29:15.377Z,99.90
2023-04-24T18:31:43.751Z,99.90
2023-04-24T18:34:12.238Z,99.90
2023-04-24T18:36:40.616Z,99.90
2023-04-24T18:39:08.914Z,99.90
2023-04-24T18:41:37.395Z,99.90
2023-04-24T18:44:07.148Z,99.90
2023-04-24T18:46:38.739Z,99.90
2023-04-24T18:49:07.181Z,99.90
2023-04-24T18:51:46.541Z,99.90
2023-04-24T18:54:18.992Z,99.90
2023-04-24T18:56:47.304Z,99.90
2023-04-24T18:59:16.979Z,99.90
2023-04-24T19:01:45.483Z,99.90
2023-04-24T19:04:13.899Z,99.90
2023-04-24T19:06:42.312Z,99.90
2023-04-24T19:09:10.625Z,99.90
2023-04-24T19:11:39.346Z,99.90
2023-04-24T19:14:07.752Z,99.90
2023-04-24T19:16:37.587Z,99.90
2023-04-24T19:19:06.025Z,99.90
2023-04-24T19:21:34.664Z,99.90
2023-04-24T19:24:03.242Z,99.90
2023-04-24T19:26:31.634Z,99.90
2023-04-24T19:28:59.997Z,99.90
2023-04-24T19:31:28.515Z,99.90
2023-04-24T19:33:58.193Z,99.90
2023-04-24T19:36:26.989Z,99.90
2023-04-24T19:38:55.249Z,99.90
2023-04-24T19:41:23.513Z,99.90
2023-04-24T19:43:51.953Z,99.90
2023-04-24T19:46:20.591Z,99.90
2023-04-24T19:48:49.218Z,99.90
2023-04-24T19:51:19.149Z,99.90
2023-04-24T19:53:47.456Z,99.90
2023-04-24T19:56:15.735Z,99.90
2023-04-24T19:58:43.998Z,99.90
2023-04-24T20:01:12.288Z,99.90
2023-04-24T20:03:41.061Z,99.90
2023-04-24T20:06:09.482Z,99.90
2023-04-24T20:08:39.850Z,99.90
2023-04-24T20:11:08.137Z,99.90
2023-04-24T20:13:36.389Z,99.90
2023-04-24T20:16:05.100Z,99.90
2023-04-24T20:18:33.584Z,99.90
2023-04-24T20:21:01.908Z,99.90
2023-04-24T20:23:30.221Z,99.90
2023-04-24T20:25:59.900Z,99.90
2023-04-24T20:28:29.133Z,99.90
2023-04-24T20:30:57.547Z,99.90
2023-04-24T20:33:26.014Z,99.90
2023-04-24T20:35:54.296Z,99.90
2023-04-24T20:38:24.562Z,99.90
2023-04-24T20:43:28.661Z,99.90
2023-04-24T20:45:58.105Z,99.90
2023-04-24T20:48:27.202Z,99.90
2023-04-24T20:50:56.074Z,99.90
2023-04-24T20:53:25.166Z,99.90
2023-04-24T20:55:53.568Z,99.90
2023-04-24T20:58:22.425Z,99.90
2023-04-24T21:00:52.850Z,99.90
2023-04-24T21:03:21.697Z,99.90
2023-04-24T21:05:50.231Z,99.90
2023-04-24T21:08:19.066Z,99.90
2023-04-24T21:10:47.538Z,99.90
2023-04-24T21:13:16.171Z,99.90
2023-04-24T21:15:44.979Z,99.90
2023-04-24T21:18:16.178Z,99.90
2023-04-24T21:20:44.861Z,99.90
2023-04-24T21:23:13.515Z,99.90
2023-04-24T21:25:42.111Z,99.90
2023-04-24T21:28:10.810Z,99.90
2023-04-24T21:30:39.661Z,99.90
2023-04-24T21:33:08.361Z,99.90
2023-04-24T21:35:38.336Z,99.90
2023-04-24T21:38:07.135Z,99.90
2023-04-24T21:40:35.778Z,99.90
2023-04-24T21:43:04.647Z,99.90
2023-04-24T21:45:33.160Z,99.90
2023-04-24T21:48:02.102Z,99.90
2023-04-24T21:50:30.993Z,99.90
2023-04-24T21:53:00.691Z,99.90
2023-04-24T21:55:29.243Z,99.90
2023-04-24T21:57:57.758Z,99.90
2023-04-24T22:00:26.672Z,99.90
2023-04-24T22:02:55.375Z,99.90
2023-04-24T22:05:23.841Z,99.90
2023-04-24T22:07:52.151Z,99.90
2023-04-24T22:10:21.918Z,99.90
2023-04-24T22:12:50.541Z,99.90
2023-04-24T22:15:19.113Z,99.90
2023-04-24T22:17:49.790Z,99.90
2023-04-24T22:20:18.373Z,99.90
2023-04-24T22:22:46.845Z,99.90
2023-04-24T22:25:15.403Z,99.90
2023-04-24T22:27:45.574Z,99.90
2023-04-24T22:30:14.713Z,99.90
2023-04-24T22:32:43.743Z,99.90
2023-04-24T22:35:12.178Z,99.90
2023-04-24T22:37:40.864Z,99.90
2023-04-24T22:40:10.476Z,99.90
2023-04-24T22:42:39.018Z,99.90
2023-04-24T22:45:11.796Z,99.90
2023-04-24T22:47:40.893Z,99.90
2023-04-24T22:50:10.760Z,99.90
2023-04-24T22:52:41.246Z,99.90
2023-04-24T22:55:11.092Z,99.90
2023-04-24T22:57:40.031Z,99.90
2023-04-24T23:00:13.013Z,99.90
2023-04-24T23:02:43.044Z,99.90
2023-04-24T23:05:12.929Z,99.90
2023-04-24T23:07:41.631Z,99.90
2023-04-24T23:10:11.095Z,99.90
2023-04-24T23:12:40.545Z,99.90
2023-04-24T23:15:12.289Z,99.90
2023-04-24T23:17:41.202Z,99.90
2023-04-24T23:20:13.245Z,99.90
2023-04-24T23:22:42.150Z,99.90
2023-04-24T23:25:11.419Z,99.90
2023-04-24T23:27:40.083Z,99.90
2023-04-24T23:30:11.179Z,99.90
2023-04-24T23:32:39.946Z,99.90
2023-04-24T23:35:09.642Z,99.90
2023-04-24T23:37:38.767Z,99.90
2023-04-24T23:40:10.244Z,99.90
2023-04-24T23:42:38.819Z,99.90
2023-04-24T23:45:10.756Z,99.90
2023-04-24T23:47:39.707Z,99.90
2023-04-24T23:50:08.735Z,99.90
2023-04-24T23:52:37.367Z,99.90
2023-04-24T23:55:06.672Z,99.90
2023-04-24T23:57:35.125Z,99.90
